sensor_id;sensor_type;location;lat;lon;timestamp;P1;durP1;ratioP1;P2;durP2;ratioP2
55190;SDS011;41070;50.360;18.742;2022-10-26T00:01:15;17.30;;;10.20;;
55190;SDS011;41070;50.360;18.742;2022-10-26T00:03:43;12.20;;;9.10;;
55190;SDS011;41070;50.360;18.742;2022-10-26T00:06:14;14.20;;;9.40;;
55190;SDS011;41070;50.360;18.742;2022-10-26T00:08:44;14.50;;;9.90;;
55190;SDS011;41070;50.360;18.742;2022-10-26T00:11:12;13.40;;;9.40;;
55190;SDS011;41070;50.360;18.742;2022-10-26T00:13:40;15.00;;;9.80;;
55190;SDS011;41070;50.360;18.742;2022-10-26T00:16:12;15.80;;;10.00;;
55190;SDS011;41070;50.360;18.742;2022-10-26T00:18:42;11.40;;;8.80;;
55190;SDS011;41070;50.360;18.742;2022-10-26T00:21:09;13.20;;;9.30;;
55190;SDS011;41070;50.360;18.742;2022-10-26T00:23:37;15.50;;;10.20;;
55190;SDS011;41070;50.360;18.742;2022-10-26T00:26:05;16.80;;;10.00;;
55190;SDS011;41070;50.360;18.742;2022-10-26T00:28:33;14.40;;;9.80;;
55190;SDS011;41070;50.360;18.742;2022-10-26T00:31:04;12.50;;;9.70;;
55190;SDS011;41070;50.360;18.742;2022-10-26T00:36:05;12.60;;;9.10;;
55190;SDS011;41070;50.360;18.742;2022-10-26T00:38:34;15.30;;;10.00;;
55190;SDS011;41070;50.360;18.742;2022-10-26T00:41:02;12.20;;;9.80;;
55190;SDS011;41070;50.360;18.742;2022-10-26T00:45:57;11.10;;;8.20;;
55190;SDS011;41070;50.360;18.742;2022-10-26T00:48:30;12.80;;;9.10;;
55190;SDS011;41070;50.360;18.742;2022-10-26T00:51:05;14.90;;;9.40;;
55190;SDS011;41070;50.360;18.742;2022-10-26T00:53:36;14.10;;;8.80;;
55190;SDS011;41070;50.360;18.742;2022-10-26T00:56:04;13.80;;;9.00;;
55190;SDS011;41070;50.360;18.742;2022-10-26T00:58:33;12.00;;;8.10;;
55190;SDS011;41070;50.360;18.742;2022-10-26T01:01:01;10.40;;;7.20;;
55190;SDS011;41070;50.360;18.742;2022-10-26T01:03:29;9.90;;;8.00;;
55190;SDS011;41070;50.360;18.742;2022-10-26T01:05:57;8.50;;;7.10;;
55190;SDS011;41070;50.360;18.742;2022-10-26T01:08:25;11.30;;;8.40;;
55190;SDS011;41070;50.360;18.742;2022-10-26T01:10:54;11.00;;;7.70;;
55190;SDS011;41070;50.360;18.742;2022-10-26T01:13:25;12.10;;;8.30;;
55190;SDS011;41070;50.360;18.742;2022-10-26T01:18:29;16.10;;;10.30;;
55190;SDS011;41070;50.360;18.742;2022-10-26T01:21:24;18.50;;;11.60;;
55190;SDS011;41070;50.360;18.742;2022-10-26T01:32:58;10.80;;;7.10;;
55190;SDS011;41070;50.360;18.742;2022-10-26T01:38:13;12.60;;;7.20;;
55190;SDS011;41070;50.360;18.742;2022-10-26T01:40:50;12.20;;;8.00;;
55190;SDS011;41070;50.360;18.742;2022-10-26T01:43:26;15.40;;;9.30;;
55190;SDS011;41070;50.360;18.742;2022-10-26T01:45:59;14.70;;;7.50;;
55190;SDS011;41070;50.360;18.742;2022-10-26T01:48:30;12.10;;;7.40;;
55190;SDS011;41070;50.360;18.742;2022-10-26T01:51:01;14.60;;;8.30;;
55190;SDS011;41070;50.360;18.742;2022-10-26T01:53:29;14.80;;;8.20;;
55190;SDS011;41070;50.360;18.742;2022-10-26T01:55:57;10.90;;;7.50;;
55190;SDS011;41070;50.360;18.742;2022-10-26T02:12:51;11.80;;;7.80;;
55190;SDS011;41070;50.360;18.742;2022-10-26T02:20:49;10.00;;;7.40;;
55190;SDS011;41070;50.360;18.742;2022-10-26T02:23:21;9.10;;;7.00;;
55190;SDS011;41070;50.360;18.742;2022-10-26T02:25:53;10.60;;;7.40;;
55190;SDS011;41070;50.360;18.742;2022-10-26T02:28:27;10.50;;;7.20;;
55190;SDS011;41070;50.360;18.742;2022-10-26T02:30:59;13.60;;;8.70;;
55190;SDS011;41070;50.360;18.742;2022-10-26T02:33:30;10.80;;;6.70;;
55190;SDS011;41070;50.360;18.742;2022-10-26T02:36:01;10.00;;;6.50;;
55190;SDS011;41070;50.360;18.742;2022-10-26T02:38:32;11.10;;;8.00;;
55190;SDS011;41070;50.360;18.742;2022-10-26T02:41:02;11.00;;;7.50;;
55190;SDS011;41070;50.360;18.742;2022-10-26T02:43:32;11.90;;;8.20;;
55190;SDS011;41070;50.360;18.742;2022-10-26T02:46:06;13.70;;;8.70;;
55190;SDS011;41070;50.360;18.742;2022-10-26T02:48:40;15.50;;;9.60;;
55190;SDS011;41070;50.360;18.742;2022-10-26T02:54:04;14.40;;;8.90;;
55190;SDS011;41070;50.360;18.742;2022-10-26T02:56:44;14.10;;;9.10;;
55190;SDS011;41070;50.360;18.742;2022-10-26T02:59:35;14.90;;;9.10;;
55190;SDS011;41070;50.360;18.742;2022-10-26T03:02:06;11.40;;;7.80;;
55190;SDS011;41070;50.360;18.742;2022-10-26T03:04:33;13.40;;;8.50;;
55190;SDS011;41070;50.360;18.742;2022-10-26T03:07:01;12.30;;;8.90;;
55190;SDS011;41070;50.360;18.742;2022-10-26T03:09:29;20.30;;;10.50;;
55190;SDS011;41070;50.360;18.742;2022-10-26T03:11:57;22.20;;;11.60;;
55190;SDS011;41070;50.360;18.742;2022-10-26T03:14:24;20.30;;;11.80;;
55190;SDS011;41070;50.360;18.742;2022-10-26T03:16:55;20.30;;;11.70;;
55190;SDS011;41070;50.360;18.742;2022-10-26T03:19:23;17.60;;;10.80;;
55190;SDS011;41070;50.360;18.742;2022-10-26T03:21:54;18.20;;;10.90;;
55190;SDS011;41070;50.360;18.742;2022-10-26T03:28:16;23.80;;;13.10;;
55190;SDS011;41070;50.360;18.742;2022-10-26T03:30:43;24.00;;;14.40;;
55190;SDS011;41070;50.360;18.742;2022-10-26T03:33:10;19.80;;;12.70;;
55190;SDS011;41070;50.360;18.742;2022-10-26T03:35:38;24.30;;;14.40;;
55190;SDS011;41070;50.360;18.742;2022-10-26T03:38:06;21.70;;;13.60;;
55190;SDS011;41070;50.360;18.742;2022-10-26T03:40:33;21.80;;;13.30;;
55190;SDS011;41070;50.360;18.742;2022-10-26T03:43:01;24.70;;;15.30;;
55190;SDS011;41070;50.360;18.742;2022-10-26T03:45:29;21.90;;;13.20;;
55190;SDS011;41070;50.360;18.742;2022-10-26T03:47:57;26.80;;;15.30;;
55190;SDS011;41070;50.360;18.742;2022-10-26T03:50:24;22.60;;;13.10;;
55190;SDS011;41070;50.360;18.742;2022-10-26T03:52:52;25.50;;;14.70;;
55190;SDS011;41070;50.360;18.742;2022-10-26T03:55:19;22.70;;;15.20;;
55190;SDS011;41070;50.360;18.742;2022-10-26T03:57:47;17.60;;;12.30;;
55190;SDS011;41070;50.360;18.742;2022-10-26T04:00:15;19.70;;;11.70;;
55190;SDS011;41070;50.360;18.742;2022-10-26T04:02:44;17.70;;;12.40;;
55190;SDS011;41070;50.360;18.742;2022-10-26T04:05:13;16.50;;;11.30;;
55190;SDS011;41070;50.360;18.742;2022-10-26T04:07:41;19.30;;;12.10;;
55190;SDS011;41070;50.360;18.742;2022-10-26T04:10:09;17.20;;;11.00;;
55190;SDS011;41070;50.360;18.742;2022-10-26T04:12:37;20.20;;;12.50;;
55190;SDS011;41070;50.360;18.742;2022-10-26T04:15:05;21.40;;;13.50;;
55190;SDS011;41070;50.360;18.742;2022-10-26T04:17:33;21.90;;;13.30;;
55190;SDS011;41070;50.360;18.742;2022-10-26T04:20:00;21.90;;;13.30;;
55190;SDS011;41070;50.360;18.742;2022-10-26T04:22:28;22.20;;;14.30;;
55190;SDS011;41070;50.360;18.742;2022-10-26T04:24:55;22.20;;;14.90;;
55190;SDS011;41070;50.360;18.742;2022-10-26T04:27:23;24.10;;;15.10;;
55190;SDS011;41070;50.360;18.742;2022-10-26T04:29:50;22.70;;;14.80;;
55190;SDS011;41070;50.360;18.742;2022-10-26T04:32:18;21.60;;;15.00;;
55190;SDS011;41070;50.360;18.742;2022-10-26T04:34:45;18.50;;;13.60;;
55190;SDS011;41070;50.360;18.742;2022-10-26T04:37:13;24.70;;;14.80;;
55190;SDS011;41070;50.360;18.742;2022-10-26T04:39:42;21.30;;;13.90;;
55190;SDS011;41070;50.360;18.742;2022-10-26T04:42:09;24.70;;;14.40;;
55190;SDS011;41070;50.360;18.742;2022-10-26T04:44:37;19.70;;;13.10;;
55190;SDS011;41070;50.360;18.742;2022-10-26T04:47:05;18.40;;;13.10;;
55190;SDS011;41070;50.360;18.742;2022-10-26T04:49:32;18.60;;;12.40;;
55190;SDS011;41070;50.360;18.742;2022-10-26T04:52:00;18.90;;;10.90;;
55190;SDS011;41070;50.360;18.742;2022-10-26T04:54:38;17.30;;;11.80;;
55190;SDS011;41070;50.360;18.742;2022-10-26T04:57:26;17.40;;;12.10;;
55190;SDS011;41070;50.360;18.742;2022-10-26T05:00:14;25.60;;;15.30;;
55190;SDS011;41070;50.360;18.742;2022-10-26T05:02:46;22.80;;;13.90;;
55190;SDS011;41070;50.360;18.742;2022-10-26T05:06:20;23.20;;;14.30;;
55190;SDS011;41070;50.360;18.742;2022-10-26T05:09:08;23.30;;;14.20;;
55190;SDS011;41070;50.360;18.742;2022-10-26T05:11:57;22.70;;;14.00;;
55190;SDS011;41070;50.360;18.742;2022-10-26T05:14:36;52.60;;;20.50;;
55190;SDS011;41070;50.360;18.742;2022-10-26T05:17:20;27.20;;;15.80;;
55190;SDS011;41070;50.360;18.742;2022-10-26T05:20:28;22.50;;;14.10;;
55190;SDS011;41070;50.360;18.742;2022-10-26T05:23:37;19.50;;;12.40;;
55190;SDS011;41070;50.360;18.742;2022-10-26T05:26:45;27.20;;;15.70;;
55190;SDS011;41070;50.360;18.742;2022-10-26T05:29:38;21.60;;;12.90;;
55190;SDS011;41070;50.360;18.742;2022-10-26T05:32:07;24.40;;;15.50;;
55190;SDS011;41070;50.360;18.742;2022-10-26T05:34:55;24.80;;;15.80;;
55190;SDS011;41070;50.360;18.742;2022-10-26T05:38:10;30.00;;;18.80;;
55190;SDS011;41070;50.360;18.742;2022-10-26T05:41:00;30.90;;;20.00;;
55190;SDS011;41070;50.360;18.742;2022-10-26T05:43:52;31.50;;;19.10;;
55190;SDS011;41070;50.360;18.742;2022-10-26T05:46:47;27.60;;;18.80;;
55190;SDS011;41070;50.360;18.742;2022-10-26T05:49:55;30.80;;;18.40;;
55190;SDS011;41070;50.360;18.742;2022-10-26T05:53:02;30.90;;;18.30;;
55190;SDS011;41070;50.360;18.742;2022-10-26T05:56:20;27.90;;;16.70;;
55190;SDS011;41070;50.360;18.742;2022-10-26T05:59:52;32.30;;;18.80;;
55190;SDS011;41070;50.360;18.742;2022-10-26T06:05:57;35.40;;;20.70;;
55190;SDS011;41070;50.360;18.742;2022-10-26T06:08:49;26.70;;;17.40;;
55190;SDS011;41070;50.360;18.742;2022-10-26T06:11:28;26.20;;;15.80;;
55190;SDS011;41070;50.360;18.742;2022-10-26T06:14:23;27.40;;;18.30;;
55190;SDS011;41070;50.360;18.742;2022-10-26T06:23:08;39.40;;;20.70;;
55190;SDS011;41070;50.360;18.742;2022-10-26T06:26:20;28.50;;;19.00;;
55190;SDS011;41070;50.360;18.742;2022-10-26T06:31:56;31.00;;;20.20;;
55190;SDS011;41070;50.360;18.742;2022-10-26T06:34:33;30.20;;;19.30;;
55190;SDS011;41070;50.360;18.742;2022-10-26T06:37:43;31.50;;;19.80;;
55190;SDS011;41070;50.360;18.742;2022-10-26T06:40:48;33.30;;;21.60;;
55190;SDS011;41070;50.360;18.742;2022-10-26T06:43:47;34.10;;;21.70;;
55190;SDS011;41070;50.360;18.742;2022-10-26T06:46:42;31.80;;;20.80;;
55190;SDS011;41070;50.360;18.742;2022-10-26T06:49:17;33.00;;;21.80;;
55190;SDS011;41070;50.360;18.742;2022-10-26T06:52:36;33.80;;;22.80;;
55190;SDS011;41070;50.360;18.742;2022-10-26T06:55:42;35.30;;;21.80;;
55190;SDS011;41070;50.360;18.742;2022-10-26T06:58:22;34.80;;;22.40;;
55190;SDS011;41070;50.360;18.742;2022-10-26T07:00:59;37.10;;;23.40;;
55190;SDS011;41070;50.360;18.742;2022-10-26T07:03:45;35.70;;;21.60;;
55190;SDS011;41070;50.360;18.742;2022-10-26T07:06:26;32.60;;;22.30;;
55190;SDS011;41070;50.360;18.742;2022-10-26T07:09:23;33.10;;;20.80;;
55190;SDS011;41070;50.360;18.742;2022-10-26T07:12:32;30.20;;;19.10;;
55190;SDS011;41070;50.360;18.742;2022-10-26T07:15:23;30.40;;;19.10;;
55190;SDS011;41070;50.360;18.742;2022-10-26T07:18:31;26.20;;;18.20;;
55190;SDS011;41070;50.360;18.742;2022-10-26T07:21:10;24.80;;;16.40;;
55190;SDS011;41070;50.360;18.742;2022-10-26T07:23:38;27.70;;;16.00;;
55190;SDS011;41070;50.360;18.742;2022-10-26T07:26:05;27.60;;;16.90;;
55190;SDS011;41070;50.360;18.742;2022-10-26T07:28:33;25.90;;;17.30;;
55190;SDS011;41070;50.360;18.742;2022-10-26T07:31:01;25.70;;;17.00;;
55190;SDS011;41070;50.360;18.742;2022-10-26T07:33:35;24.20;;;18.20;;
55190;SDS011;41070;50.360;18.742;2022-10-26T07:36:03;24.50;;;17.80;;
55190;SDS011;41070;50.360;18.742;2022-10-26T07:38:31;26.00;;;17.60;;
55190;SDS011;41070;50.360;18.742;2022-10-26T07:40:59;26.70;;;17.60;;
55190;SDS011;41070;50.360;18.742;2022-10-26T07:43:35;27.50;;;16.70;;
55190;SDS011;41070;50.360;18.742;2022-10-26T07:46:03;26.40;;;17.80;;
55190;SDS011;41070;50.360;18.742;2022-10-26T07:48:30;28.50;;;19.60;;
55190;SDS011;41070;50.360;18.742;2022-10-26T07:50:59;29.10;;;18.30;;
55190;SDS011;41070;50.360;18.742;2022-10-26T07:53:27;24.80;;;18.40;;
55190;SDS011;41070;50.360;18.742;2022-10-26T07:55:56;28.00;;;20.70;;
55190;SDS011;41070;50.360;18.742;2022-10-26T07:58:24;31.60;;;20.40;;
55190;SDS011;41070;50.360;18.742;2022-10-26T08:00:52;31.10;;;20.70;;
55190;SDS011;41070;50.360;18.742;2022-10-26T08:03:21;30.90;;;23.20;;
55190;SDS011;41070;50.360;18.742;2022-10-26T08:05:49;32.90;;;24.30;;
55190;SDS011;41070;50.360;18.742;2022-10-26T08:08:20;31.90;;;25.30;;
55190;SDS011;41070;50.360;18.742;2022-10-26T08:10:48;31.20;;;24.10;;
55190;SDS011;41070;50.360;18.742;2022-10-26T08:13:17;28.30;;;21.50;;
55190;SDS011;41070;50.360;18.742;2022-10-26T08:15:45;30.10;;;21.50;;
55190;SDS011;41070;50.360;18.742;2022-10-26T08:18:13;28.60;;;21.60;;
55190;SDS011;41070;50.360;18.742;2022-10-26T08:20:41;30.60;;;21.90;;
55190;SDS011;41070;50.360;18.742;2022-10-26T08:23:08;30.70;;;21.70;;
55190;SDS011;41070;50.360;18.742;2022-10-26T08:25:36;27.20;;;20.80;;
55190;SDS011;41070;50.360;18.742;2022-10-26T08:28:04;28.90;;;20.20;;
55190;SDS011;41070;50.360;18.742;2022-10-26T08:30:32;27.30;;;20.40;;
55190;SDS011;41070;50.360;18.742;2022-10-26T08:33:00;27.10;;;19.60;;
55190;SDS011;41070;50.360;18.742;2022-10-26T08:35:29;25.90;;;18.30;;
55190;SDS011;41070;50.360;18.742;2022-10-26T08:37:57;27.70;;;19.20;;
55190;SDS011;41070;50.360;18.742;2022-10-26T08:40:26;24.30;;;18.50;;
55190;SDS011;41070;50.360;18.742;2022-10-26T08:42:59;26.20;;;19.40;;
55190;SDS011;41070;50.360;18.742;2022-10-26T08:45:34;26.50;;;18.80;;
55190;SDS011;41070;50.360;18.742;2022-10-26T08:48:06;26.30;;;18.60;;
55190;SDS011;41070;50.360;18.742;2022-10-26T08:50:40;26.40;;;20.10;;
55190;SDS011;41070;50.360;18.742;2022-10-26T08:53:16;28.30;;;19.30;;
55190;SDS011;41070;50.360;18.742;2022-10-26T08:56:28;21.50;;;16.40;;
55190;SDS011;41070;50.360;18.742;2022-10-26T08:59:32;24.80;;;18.00;;
55190;SDS011;41070;50.360;18.742;2022-10-26T09:02:11;22.80;;;17.20;;
55190;SDS011;41070;50.360;18.742;2022-10-26T09:04:40;23.10;;;17.60;;
55190;SDS011;41070;50.360;18.742;2022-10-26T09:07:18;26.80;;;17.20;;
55190;SDS011;41070;50.360;18.742;2022-10-26T09:18:20;21.40;;;15.40;;
55190;SDS011;41070;50.360;18.742;2022-10-26T09:27:37;18.60;;;13.20;;
55190;SDS011;41070;50.360;18.742;2022-10-26T09:30:14;19.00;;;12.20;;
55190;SDS011;41070;50.360;18.742;2022-10-26T09:32:58;18.70;;;13.00;;
55190;SDS011;41070;50.360;18.742;2022-10-26T09:35:35;21.00;;;13.00;;
55190;SDS011;41070;50.360;18.742;2022-10-26T09:44:02;19.60;;;12.70;;
55190;SDS011;41070;50.360;18.742;2022-10-26T09:46:47;19.30;;;12.00;;
55190;SDS011;41070;50.360;18.742;2022-10-26T09:49:28;19.20;;;12.50;;
55190;SDS011;41070;50.360;18.742;2022-10-26T09:52:44;17.70;;;12.90;;
55190;SDS011;41070;50.360;18.742;2022-10-26T09:55:12;23.10;;;14.20;;
55190;SDS011;41070;50.360;18.742;2022-10-26T09:57:47;20.60;;;14.50;;
55190;SDS011;41070;50.360;18.742;2022-10-26T10:00:19;19.70;;;12.70;;
55190;SDS011;41070;50.360;18.742;2022-10-26T10:03:18;11.30;;;7.50;;
55190;SDS011;41070;50.360;18.742;2022-10-26T10:10:05;17.10;;;8.30;;
55190;SDS011;41070;50.360;18.742;2022-10-26T10:17:18;7.40;;;4.70;;
55190;SDS011;41070;50.360;18.742;2022-10-26T10:23:10;8.10;;;5.20;;
55190;SDS011;41070;50.360;18.742;2022-10-26T10:32:16;6.70;;;4.70;;
55190;SDS011;41070;50.360;18.742;2022-10-26T10:34:47;8.90;;;5.00;;
55190;SDS011;41070;50.360;18.742;2022-10-26T10:37:23;6.10;;;4.80;;
55190;SDS011;41070;50.360;18.742;2022-10-26T10:40:23;9.00;;;4.80;;
55190;SDS011;41070;50.360;18.742;2022-10-26T10:42:56;8.40;;;4.20;;
55190;SDS011;41070;50.360;18.742;2022-10-26T10:45:32;8.60;;;5.20;;
55190;SDS011;41070;50.360;18.742;2022-10-26T10:50:49;6.70;;;3.60;;
55190;SDS011;41070;50.360;18.742;2022-10-26T10:53:21;7.60;;;4.00;;
55190;SDS011;41070;50.360;18.742;2022-10-26T10:56:01;5.90;;;3.40;;
55190;SDS011;41070;50.360;18.742;2022-10-26T10:58:45;5.10;;;2.80;;
55190;SDS011;41070;50.360;18.742;2022-10-26T11:01:25;5.60;;;2.40;;
55190;SDS011;41070;50.360;18.742;2022-10-26T11:09:06;3.90;;;2.90;;
55190;SDS011;41070;50.360;18.742;2022-10-26T11:11:54;5.40;;;3.10;;
55190;SDS011;41070;50.360;18.742;2022-10-26T11:14:38;6.60;;;3.20;;
55190;SDS011;41070;50.360;18.742;2022-10-26T11:17:15;6.60;;;2.80;;
55190;SDS011;41070;50.360;18.742;2022-10-26T11:23:01;5.30;;;2.80;;
55190;SDS011;41070;50.360;18.742;2022-10-26T11:25:43;3.60;;;2.40;;
55190;SDS011;41070;50.360;18.742;2022-10-26T11:28:18;4.00;;;2.00;;
55190;SDS011;41070;50.360;18.742;2022-10-26T11:30:59;3.70;;;2.00;;
55190;SDS011;41070;50.360;18.742;2022-10-26T11:33:31;1.90;;;1.50;;
55190;SDS011;41070;50.360;18.742;2022-10-26T11:36:06;3.30;;;2.10;;
55190;SDS011;41070;50.360;18.742;2022-10-26T11:41:24;2.80;;;1.70;;
55190;SDS011;41070;50.360;18.742;2022-10-26T11:46:50;4.30;;;1.90;;
55190;SDS011;41070;50.360;18.742;2022-10-26T11:54:40;4.00;;;1.60;;
55190;SDS011;41070;50.360;18.742;2022-10-26T11:57:13;3.80;;;1.50;;
55190;SDS011;41070;50.360;18.742;2022-10-26T11:59:44;2.60;;;1.60;;
55190;SDS011;41070;50.360;18.742;2022-10-26T12:02:22;4.40;;;1.60;;
55190;SDS011;41070;50.360;18.742;2022-10-26T12:05:16;4.40;;;2.10;;
55190;SDS011;41070;50.360;18.742;2022-10-26T12:07:45;2.90;;;1.50;;
55190;SDS011;41070;50.360;18.742;2022-10-26T12:16:08;1.50;;;1.30;;
55190;SDS011;41070;50.360;18.742;2022-10-26T12:22:59;2.60;;;1.50;;
55190;SDS011;41070;50.360;18.742;2022-10-26T12:25:26;2.30;;;1.00;;
55190;SDS011;41070;50.360;18.742;2022-10-26T12:27:54;2.20;;;1.00;;
55190;SDS011;41070;50.360;18.742;2022-10-26T12:30:24;3.20;;;0.90;;
55190;SDS011;41070;50.360;18.742;2022-10-26T12:39:48;2.20;;;0.90;;
55190;SDS011;41070;50.360;18.742;2022-10-26T12:58:51;2.40;;;0.80;;
55190;SDS011;41070;50.360;18.742;2022-10-26T13:01:38;0.90;;;0.70;;
55190;SDS011;41070;50.360;18.742;2022-10-26T13:08:04;1.40;;;1.20;;
55190;SDS011;41070;50.360;18.742;2022-10-26T13:10:36;2.00;;;0.70;;
55190;SDS011;41070;50.360;18.742;2022-10-26T13:13:06;2.10;;;0.60;;
55190;SDS011;41070;50.360;18.742;2022-10-26T13:19:48;2.20;;;0.90;;
55190;SDS011;41070;50.360;18.742;2022-10-26T13:22:29;1.90;;;0.90;;
55190;SDS011;41070;50.360;18.742;2022-10-26T13:25:20;3.50;;;0.90;;
55190;SDS011;41070;50.360;18.742;2022-10-26T13:28:32;1.80;;;0.90;;
55190;SDS011;41070;50.360;18.742;2022-10-26T13:38:01;2.40;;;0.80;;
55190;SDS011;41070;50.360;18.742;2022-10-26T13:41:03;1.30;;;0.80;;
55190;SDS011;41070;50.360;18.742;2022-10-26T13:43:34;1.30;;;0.70;;
55190;SDS011;41070;50.360;18.742;2022-10-26T13:46:02;1.80;;;0.90;;
55190;SDS011;41070;50.360;18.742;2022-10-26T13:48:40;1.70;;;0.70;;
55190;SDS011;41070;50.360;18.742;2022-10-26T13:51:15;3.00;;;0.70;;
55190;SDS011;41070;50.360;18.742;2022-10-26T13:53:51;1.40;;;0.50;;
55190;SDS011;41070;50.360;18.742;2022-10-26T13:56:31;1.40;;;0.80;;
55190;SDS011;41070;50.360;18.742;2022-10-26T13:59:02;3.10;;;0.90;;
55190;SDS011;41070;50.360;18.742;2022-10-26T14:01:34;4.90;;;1.00;;
55190;SDS011;41070;50.360;18.742;2022-10-26T14:04:15;1.30;;;0.70;;
55190;SDS011;41070;50.360;18.742;2022-10-26T14:06:46;1.90;;;0.90;;
55190;SDS011;41070;50.360;18.742;2022-10-26T14:09:33;3.10;;;1.30;;
55190;SDS011;41070;50.360;18.742;2022-10-26T14:12:04;2.20;;;1.10;;
55190;SDS011;41070;50.360;18.742;2022-10-26T14:14:40;3.70;;;1.70;;
55190;SDS011;41070;50.360;18.742;2022-10-26T14:17:50;2.20;;;1.70;;
55190;SDS011;41070;50.360;18.742;2022-10-26T14:20:21;3.20;;;1.50;;
55190;SDS011;41070;50.360;18.742;2022-10-26T14:22:51;2.70;;;1.70;;
55190;SDS011;41070;50.360;18.742;2022-10-26T14:27:48;3.30;;;1.80;;
55190;SDS011;41070;50.360;18.742;2022-10-26T14:30:23;2.00;;;1.50;;
55190;SDS011;41070;50.360;18.742;2022-10-26T14:32:54;3.50;;;1.70;;
55190;SDS011;41070;50.360;18.742;2022-10-26T14:35:25;3.10;;;1.60;;
55190;SDS011;41070;50.360;18.742;2022-10-26T14:38:01;1.90;;;1.50;;
55190;SDS011;41070;50.360;18.742;2022-10-26T14:40:33;3.10;;;1.40;;
55190;SDS011;41070;50.360;18.742;2022-10-26T14:43:02;3.70;;;1.70;;
55190;SDS011;41070;50.360;18.742;2022-10-26T14:45:35;4.00;;;2.00;;
55190;SDS011;41070;50.360;18.742;2022-10-26T14:48:05;3.20;;;1.90;;
55190;SDS011;41070;50.360;18.742;2022-10-26T14:50:56;2.30;;;1.60;;
55190;SDS011;41070;50.360;18.742;2022-10-26T14:59:09;3.60;;;1.70;;
55190;SDS011;41070;50.360;18.742;2022-10-26T15:01:58;2.90;;;1.70;;
55190;SDS011;41070;50.360;18.742;2022-10-26T15:09:48;5.00;;;3.10;;
55190;SDS011;41070;50.360;18.742;2022-10-26T15:22:51;10.20;;;4.80;;
55190;SDS011;41070;50.360;18.742;2022-10-26T15:25:40;14.90;;;6.00;;
55190;SDS011;41070;50.360;18.742;2022-10-26T15:28:31;14.20;;;5.20;;
55190;SDS011;41070;50.360;18.742;2022-10-26T15:40:22;12.80;;;3.90;;
55190;SDS011;41070;50.360;18.742;2022-10-26T15:42:52;12.20;;;4.80;;
55190;SDS011;41070;50.360;18.742;2022-10-26T15:45:32;8.60;;;3.30;;
55190;SDS011;41070;50.360;18.742;2022-10-26T15:48:25;10.90;;;4.70;;
55190;SDS011;41070;50.360;18.742;2022-10-26T15:51:01;8.60;;;4.20;;
55190;SDS011;41070;50.360;18.742;2022-10-26T15:53:44;7.80;;;4.30;;
55190;SDS011;41070;50.360;18.742;2022-10-26T15:56:16;9.70;;;5.70;;
55190;SDS011;41070;50.360;18.742;2022-10-26T15:58:53;20.90;;;8.10;;
55190;SDS011;41070;50.360;18.742;2022-10-26T16:01:26;63.80;;;25.10;;
55190;SDS011;41070;50.360;18.742;2022-10-26T16:04:15;25.40;;;13.90;;
55190;SDS011;41070;50.360;18.742;2022-10-26T16:06:43;13.40;;;8.00;;
55190;SDS011;41070;50.360;18.742;2022-10-26T16:20:29;5.80;;;3.30;;
55190;SDS011;41070;50.360;18.742;2022-10-26T16:23:01;7.60;;;3.70;;
55190;SDS011;41070;50.360;18.742;2022-10-26T16:25:35;13.80;;;5.80;;
55190;SDS011;41070;50.360;18.742;2022-10-26T16:28:11;11.80;;;4.30;;
55190;SDS011;41070;50.360;18.742;2022-10-26T16:30:42;11.90;;;5.10;;
55190;SDS011;41070;50.360;18.742;2022-10-26T16:33:12;15.20;;;5.80;;
55190;SDS011;41070;50.360;18.742;2022-10-26T16:35:43;17.70;;;8.30;;
55190;SDS011;41070;50.360;18.742;2022-10-26T16:38:23;13.80;;;8.10;;
55190;SDS011;41070;50.360;18.742;2022-10-26T16:41:05;16.10;;;7.70;;
55190;SDS011;41070;50.360;18.742;2022-10-26T16:43:51;14.30;;;8.30;;
55190;SDS011;41070;50.360;18.742;2022-10-26T16:46:25;14.10;;;8.50;;
55190;SDS011;41070;50.360;18.742;2022-10-26T16:48:53;44.10;;;17.30;;
55190;SDS011;41070;50.360;18.742;2022-10-26T16:51:39;46.20;;;19.40;;
55190;SDS011;41070;50.360;18.742;2022-10-26T16:54:12;60.80;;;28.10;;
55190;SDS011;41070;50.360;18.742;2022-10-26T16:56:54;27.10;;;15.30;;
55190;SDS011;41070;50.360;18.742;2022-10-26T16:59:27;26.10;;;13.20;;
55190;SDS011;41070;50.360;18.742;2022-10-26T17:03:16;28.20;;;14.30;;
55190;SDS011;41070;50.360;18.742;2022-10-26T17:06:04;38.80;;;20.50;;
55190;SDS011;41070;50.360;18.742;2022-10-26T17:08:37;60.30;;;31.30;;
55190;SDS011;41070;50.360;18.742;2022-10-26T17:11:13;70.00;;;33.00;;
55190;SDS011;41070;50.360;18.742;2022-10-26T17:13:55;59.70;;;31.00;;
55190;SDS011;41070;50.360;18.742;2022-10-26T17:16:44;60.90;;;30.70;;
55190;SDS011;41070;50.360;18.742;2022-10-26T17:19:40;62.90;;;30.60;;
55190;SDS011;41070;50.360;18.742;2022-10-26T17:22:28;66.00;;;31.90;;
55190;SDS011;41070;50.360;18.742;2022-10-26T17:24:56;77.00;;;34.80;;
55190;SDS011;41070;50.360;18.742;2022-10-26T17:40:16;74.90;;;36.10;;
55190;SDS011;41070;50.360;18.742;2022-10-26T18:10:03;65.70;;;29.90;;
55190;SDS011;41070;50.360;18.742;2022-10-26T18:30:14;138.60;;;46.60;;
55190;SDS011;41070;50.360;18.742;2022-10-26T18:36:12;63.40;;;32.00;;
55190;SDS011;41070;50.360;18.742;2022-10-26T18:45:10;98.50;;;42.40;;
55190;SDS011;41070;50.360;18.742;2022-10-26T18:53:47;99.40;;;37.50;;
55190;SDS011;41070;50.360;18.742;2022-10-26T19:20:56;40.00;;;23.40;;
55190;SDS011;41070;50.360;18.742;2022-10-26T19:27:08;38.20;;;23.00;;
55190;SDS011;41070;50.360;18.742;2022-10-26T19:29:44;41.40;;;22.50;;
55190;SDS011;41070;50.360;18.742;2022-10-26T19:35:34;35.80;;;21.20;;
55190;SDS011;41070;50.360;18.742;2022-10-26T19:38:43;40.80;;;24.20;;
55190;SDS011;41070;50.360;18.742;2022-10-26T19:41:27;42.40;;;24.90;;
55190;SDS011;41070;50.360;18.742;2022-10-26T19:44:10;49.50;;;27.20;;
55190;SDS011;41070;50.360;18.742;2022-10-26T19:46:53;52.30;;;29.20;;
55190;SDS011;41070;50.360;18.742;2022-10-26T19:49:37;59.50;;;34.40;;
55190;SDS011;41070;50.360;18.742;2022-10-26T19:52:18;78.70;;;37.90;;
55190;SDS011;41070;50.360;18.742;2022-10-26T19:55:08;61.70;;;32.80;;
55190;SDS011;41070;50.360;18.742;2022-10-26T19:57:55;76.30;;;38.00;;
55190;SDS011;41070;50.360;18.742;2022-10-26T20:00:37;76.90;;;40.80;;
55190;SDS011;41070;50.360;18.742;2022-10-26T20:03:57;52.00;;;31.70;;
55190;SDS011;41070;50.360;18.742;2022-10-26T20:06:40;52.60;;;28.60;;
55190;SDS011;41070;50.360;18.742;2022-10-26T20:09:47;49.40;;;28.70;;
55190;SDS011;41070;50.360;18.742;2022-10-26T20:12:36;49.30;;;27.80;;
55190;SDS011;41070;50.360;18.742;2022-10-26T20:15:42;51.80;;;28.00;;
55190;SDS011;41070;50.360;18.742;2022-10-26T20:18:29;51.40;;;25.80;;
55190;SDS011;41070;50.360;18.742;2022-10-26T20:21:10;50.50;;;27.60;;
55190;SDS011;41070;50.360;18.742;2022-10-26T20:23:57;53.00;;;27.80;;
55190;SDS011;41070;50.360;18.742;2022-10-26T20:26:49;49.50;;;26.20;;
55190;SDS011;41070;50.360;18.742;2022-10-26T20:29:32;41.10;;;24.60;;
55190;SDS011;41070;50.360;18.742;2022-10-26T20:32:58;69.80;;;35.00;;
55190;SDS011;41070;50.360;18.742;2022-10-26T20:35:46;58.30;;;30.90;;
55190;SDS011;41070;50.360;18.742;2022-10-26T20:38:24;52.50;;;28.80;;